createdAt,value
2023-04-21T00:01:42.263Z,99709.41
2023-04-21T00:04:13.574Z,99708.56
2023-04-21T00:06:44.491Z,99705.84
2023-04-21T00:09:12.460Z,99706.69
2023-04-21T00:11:40.613Z,99702.34
2023-04-21T00:14:08.725Z,99701.31
2023-04-21T00:16:36.813Z,99699.63
2023-04-21T00:19:07.016Z,99703.16
2023-04-21T00:21:35.776Z,99693.19
2023-04-21T00:24:05.819Z,99709.16
2023-04-21T00:26:33.822Z,99690.50
2023-04-21T00:29:01.737Z,99694.84
2023-04-21T00:31:29.717Z,99702.13
2023-04-21T00:33:57.708Z,99692.13
2023-04-21T00:36:28.214Z,99701.31
2023-04-21T00:38:56.216Z,99701.31
2023-04-21T00:41:25.529Z,99696.72
2023-04-21T00:44:02.853Z,99705.84
2023-04-21T00:46:30.912Z,99697.19
2023-04-21T00:48:59.086Z,99694.72
2023-04-21T00:51:27.734Z,99704.91
2023-04-21T00:53:55.724Z,99703.28
2023-04-21T00:56:25.073Z,99695.41
2023-04-21T00:58:53.042Z,99699.97
2023-04-21T01:01:21.097Z,99708.28
2023-04-21T01:03:50.508Z,99708.28
2023-04-21T01:06:18.824Z,99698.78
2023-04-21T01:08:46.981Z,99699.81
2023-04-21T01:11:14.962Z,99705.22
2023-04-21T01:13:44.445Z,99697.09
2023-04-21T01:16:16.992Z,99703.56
2023-04-21T01:18:45.058Z,99700.88
2023-04-21T01:21:13.182Z,99691.97
2023-04-21T01:23:42.784Z,99689.47
2023-04-21T01:26:10.949Z,99685.16
2023-04-21T01:28:39.032Z,99690.91
2023-04-21T01:31:07.015Z,99693.59
2023-04-21T01:33:35.058Z,99687.38
2023-04-21T01:36:03.039Z,99699.00
2023-04-21T01:38:31.159Z,99699.00
2023-04-21T01:41:00.548Z,99704.38
2023-04-21T01:43:28.594Z,99704.59
2023-04-21T01:45:56.607Z,99701.91
2023-04-21T01:48:24.538Z,99701.91
2023-04-21T01:50:52.566Z,99704.03
2023-04-21T01:53:20.736Z,99705.06
2023-04-21T01:55:48.737Z,99705.06
2023-04-21T01:58:18.039Z,99708.25
2023-04-21T02:00:46.065Z,99707.41
2023-04-21T02:03:14.216Z,99705.75
2023-04-21T02:05:42.340Z,99707.63
2023-04-21T02:08:10.320Z,99705.19
2023-04-21T02:10:38.266Z,99707.88
2023-04-21T02:13:06.220Z,99712.44
2023-04-21T02:15:35.714Z,99707.28
2023-04-21T02:18:03.718Z,99705.66
2023-04-21T02:20:31.721Z,99710.19
2023-04-21T02:22:59.713Z,99707.50
2023-04-21T02:25:28.233Z,99712.09
2023-04-21T02:27:56.230Z,99706.94
2023-04-21T02:30:24.200Z,99707.16
2023-04-21T02:32:53.631Z,99717.94
2023-04-21T02:35:21.861Z,99707.97
2023-04-21T02:37:49.866Z,99711.25
2023-04-21T02:40:17.894Z,99713.97
2023-04-21T02:42:45.808Z,99712.09
2023-04-21T02:45:13.741Z,99711.25
2023-04-21T02:47:41.813Z,99704.81
2023-04-21T02:50:12.187Z,99695.91
2023-04-21T02:52:40.182Z,99706.69
2023-04-21T02:55:08.922Z,99706.94
2023-04-21T02:57:36.920Z,99702.34
2023-04-21T03:00:07.485Z,99705.28
2023-04-21T03:02:36.267Z,99702.81
2023-04-21T03:05:04.489Z,99701.41
2023-04-21T03:07:33.908Z,99703.50
2023-04-21T03:10:01.935Z,99699.72
2023-04-21T03:12:29.963Z,99699.13
2023-04-21T03:14:58.006Z,99706.41
2023-04-21T03:17:26.190Z,99696.69
2023-04-21T03:19:54.286Z,99690.69
2023-04-21T03:22:22.303Z,99696.91
2023-04-21T03:24:51.737Z,99699.59
2023-04-21T03:27:19.799Z,99693.16
2023-04-21T03:29:47.873Z,99694.81
2023-04-21T03:32:15.989Z,99700.19
2023-04-21T03:34:44.006Z,99701.84
2023-04-21T03:37:11.906Z,99705.13
2023-04-21T03:39:39.967Z,99705.94
2023-04-21T03:42:09.351Z,99716.53
2023-04-21T03:44:37.380Z,99717.94
2023-04-21T03:47:05.516Z,99721.47
2023-04-21T03:49:35.309Z,99725.81
2023-04-21T03:52:03.365Z,99727.44
2023-04-21T03:54:31.490Z,99728.06
2023-04-21T03:56:59.504Z,99733.22
2023-04-21T03:59:28.946Z,99734.88
2023-04-21T04:01:57.075Z,99741.91
2023-04-21T04:04:25.362Z,99737.31
2023-04-21T04:06:53.476Z,99739.00
2023-04-21T04:09:21.661Z,99743.53
2023-04-21T04:11:49.748Z,99739.00
2023-04-21T04:14:17.811Z,99740.63
2023-04-21T04:16:47.119Z,99738.53
2023-04-21T04:19:16.280Z,99739.34
2023-04-21T04:21:44.264Z,99743.91
2023-04-21T04:24:14.175Z,99745.34
2023-04-21T04:26:42.842Z,99752.16
2023-04-21T04:29:11.612Z,99750.88
2023-04-21T04:31:39.703Z,99746.28
2023-04-21T04:34:09.787Z,99751.47
2023-04-21T04:36:37.752Z,99763.69
2023-04-21T04:39:07.222Z,99754.56
2023-04-21T04:41:36.500Z,99752.47
2023-04-21T04:44:05.128Z,99756.78
2023-04-21T04:46:33.172Z,99758.00
2023-04-21T04:49:01.735Z,99765.84
2023-04-21T04:51:32.529Z,99770.22
2023-04-21T04:54:00.481Z,99774.28
2023-04-21T04:56:28.638Z,99775.97
2023-04-21T04:58:56.849Z,99782.19
2023-04-21T05:01:30.327Z,99792.75
2023-04-21T05:03:58.656Z,99782.53
2023-04-21T05:06:28.577Z,99781.50
2023-04-21T05:08:57.976Z,99783.38
2023-04-21T05:11:26.018Z,99785.81
2023-04-21T05:13:54.156Z,99787.50
2023-04-21T05:16:22.243Z,99787.50
2023-04-21T05:18:51.175Z,99789.13
2023-04-21T05:21:25.064Z,99790.75
2023-04-21T05:23:53.008Z,99788.91
2023-04-21T05:26:22.327Z,99792.44
2023-04-21T05:28:50.350Z,99788.66
2023-04-21T05:31:18.364Z,99790.53
2023-04-21T05:33:46.356Z,99793.03
2023-04-21T05:36:14.376Z,99795.72
2023-04-21T05:38:42.345Z,99797.34
2023-04-21T05:41:10.253Z,99801.69
2023-04-21T05:43:39.701Z,99790.91
2023-04-21T05:46:10.360Z,99789.00
2023-04-21T05:48:38.631Z,99786.09
2023-04-21T05:51:10.495Z,99794.78
2023-04-21T05:53:38.761Z,99790.00
2023-04-21T05:56:08.163Z,99794.31
2023-04-21T05:58:36.227Z,99793.03
2023-04-21T06:01:06.394Z,99794.47
2023-04-21T06:03:34.742Z,99793.38
2023-04-21T06:06:03.720Z,99794.25
2023-04-21T06:08:31.810Z,99791.28
2023-04-21T06:10:59.813Z,99792.91
2023-04-21T06:13:27.869Z,99793.78
2023-04-21T06:15:56.055Z,99789.19
2023-04-21T06:18:25.577Z,99792.09
2023-04-21T06:20:53.724Z,99790.47
2023-04-21T06:23:21.695Z,99791.75
2023-04-21T06:25:49.894Z,99798.44
2023-04-21T06:28:17.969Z,99794.69
2023-04-21T06:30:46.034Z,99790.56
2023-04-21T06:33:13.976Z,99797.03
2023-04-21T06:35:43.613Z,99788.31
2023-04-21T06:38:11.552Z,99791.03
2023-04-21T06:40:39.473Z,99790.22
2023-04-21T06:43:07.590Z,99796.06
2023-04-21T06:45:35.594Z,99792.56
2023-04-21T06:48:03.675Z,99789.00
2023-04-21T06:50:31.597Z,99800.66
2023-04-21T06:53:01.057Z,99794.06
2023-04-21T06:55:29.167Z,99789.47
2023-04-21T06:57:57.116Z,99793.03
2023-04-21T07:00:25.212Z,99795.72
2023-04-21T07:02:59.309Z,99801.69
2023-04-21T07:05:27.470Z,99807.09
2023-04-21T07:07:59.633Z,99801.94
2023-04-21T07:10:29.400Z,99802.75
2023-04-21T07:12:57.345Z,99800.06
2023-04-21T07:15:25.378Z,99790.91
2023-04-21T07:18:05.425Z,99793.59
2023-04-21T07:20:33.518Z,99798.19
2023-04-21T07:23:01.578Z,99795.72
2023-04-21T07:25:31.151Z,99797.34
2023-04-21T07:27:59.102Z,99797.34
2023-04-21T07:30:27.174Z,99805.47
2023-04-21T07:32:55.170Z,99805.47
2023-04-21T07:35:23.296Z,99808.16
2023-04-21T07:37:51.284Z,99810.03
2023-04-21T07:40:19.188Z,99818.97
2023-04-21T07:42:48.590Z,99818.97
2023-04-21T07:45:16.525Z,99818.97
2023-04-21T07:47:44.595Z,99815.19
2023-04-21T07:50:12.756Z,99815.19
2023-04-21T07:52:41.355Z,99819.56
2023-04-21T07:55:09.700Z,99809.78
2023-04-21T07:57:38.659Z,99807.09
2023-04-21T08:00:09.536Z,99809.78
2023-04-21T08:02:37.960Z,99826.00
2023-04-21T08:05:06.491Z,99819.56
2023-04-21T08:07:34.593Z,99819.56
2023-04-21T08:10:02.881Z,99825.53
2023-04-21T08:12:30.777Z,99820.13
2023-04-21T08:14:58.877Z,99825.53
2023-04-21T08:17:28.363Z,99816.41
2023-04-21T08:19:57.970Z,99813.69
2023-04-21T08:22:27.553Z,99807.22
2023-04-21T08:24:55.553Z,99804.53
2023-04-21T08:27:23.614Z,99813.22
2023-04-21T08:29:51.807Z,99807.63
2023-04-21T08:32:23.660Z,99803.03
2023-04-21T08:34:53.324Z,99804.66
2023-04-21T08:37:21.530Z,99804.66
2023-04-21T08:39:50.914Z,99808.19
2023-04-21T08:42:18.995Z,99800.06
2023-04-21T08:44:47.220Z,99796.34
2023-04-21T08:47:15.814Z,99800.47
2023-04-21T08:49:45.331Z,99796.69
2023-04-21T08:52:15.062Z,99792.34
2023-04-21T08:54:43.150Z,99798.31
2023-04-21T08:57:15.635Z,99793.78
2023-04-21T08:59:44.125Z,99794.59
2023-04-21T09:02:12.733Z,99789.53
2023-04-21T09:04:41.574Z,99792.84
2023-04-21T09:07:10.310Z,99789.91
2023-04-21T09:09:55.236Z,99792.38
2023-04-21T09:12:22.986Z,99787.53
2023-04-21T09:14:51.390Z,99784.47
2023-04-21T09:17:19.775Z,99797.16
2023-04-21T09:19:47.943Z,99786.34
2023-04-21T09:22:16.710Z,99783.44
2023-04-21T09:24:48.149Z,99784.25
2023-04-21T09:27:18.241Z,99782.13
2023-04-21T09:29:49.537Z,99771.31
2023-04-21T09:32:20.555Z,99785.41
2023-04-21T09:34:48.633Z,99780.00
2023-04-21T09:37:18.768Z,99787.09
2023-04-21T09:40:03.542Z,99781.69
2023-04-21T09:42:37.859Z,99781.44
2023-04-21T09:45:32.429Z,99772.03
2023-04-21T09:47:58.807Z,99772.41
2023-04-21T09:50:54.822Z,99767.00
2023-04-21T09:53:16.574Z,99768.66
2023-04-21T09:55:44.633Z,99767.56
2023-04-21T09:58:15.521Z,99765.72
2023-04-21T10:00:43.480Z,99774.41
2023-04-21T10:03:12.315Z,99765.47
2023-04-21T10:05:42.798Z,99758.19
2023-04-21T10:08:12.515Z,99756.06
2023-04-21T10:10:40.589Z,99770.66
2023-04-21T10:13:09.004Z,99765.81
2023-04-21T10:15:39.854Z,99760.41
2023-04-21T10:18:15.255Z,99752.31
2023-04-21T10:20:54.194Z,99750.44
2023-04-21T10:23:32.555Z,99751.28
2023-04-21T10:26:04.704Z,99742.09
2023-04-21T10:28:48.429Z,99755.59
2023-04-21T10:31:30.664Z,99738.56
2023-04-21T10:34:17.421Z,99743.75
2023-04-21T10:37:07.644Z,99742.69
2023-04-21T10:39:36.729Z,99751.38
2023-04-21T10:42:22.907Z,99745.72
2023-04-21T10:45:04.043Z,99733.91
2023-04-21T10:47:38.120Z,99736.97
2023-04-21T10:50:13.818Z,99738.84
2023-04-21T10:52:44.661Z,99742.97
2023-04-21T10:55:15.671Z,99735.88
2023-04-21T10:57:45.433Z,99723.44
2023-04-21T11:00:16.578Z,99729.53
2023-04-21T11:02:46.252Z,99725.56
2023-04-21T11:05:14.371Z,99720.41
2023-04-21T11:07:42.373Z,99728.69
2023-04-21T11:10:11.934Z,99724.38
2023-04-21T11:12:40.907Z,99724.38
2023-04-21T11:15:10.136Z,99730.81
2023-04-21T11:17:39.307Z,99723.53
2023-04-21T11:20:10.131Z,99717.88
2023-04-21T11:22:38.440Z,99726.63
2023-04-21T11:25:07.575Z,99731.41
2023-04-21T11:27:35.573Z,99728.25
2023-04-21T11:30:05.864Z,99721.81
2023-04-21T11:32:35.069Z,99715.34
2023-04-21T11:35:04.823Z,99719.69
2023-04-21T11:37:34.249Z,99720.53
2023-04-21T11:40:03.348Z,99727.56
2023-04-21T11:42:31.385Z,99725.66
2023-04-21T11:44:59.482Z,99720.53
2023-04-21T11:47:28.846Z,99725.94
2023-04-21T11:49:57.484Z,99723.78
2023-04-21T11:52:26.443Z,99710.06
2023-04-21T11:54:59.982Z,99710.88
2023-04-21T11:57:28.467Z,99707.34
2023-04-21T11:59:59.124Z,99711.94
2023-04-21T12:02:28.084Z,99710.06
2023-04-21T12:05:01.257Z,99703.56
2023-04-21T12:07:31.198Z,99701.72
2023-04-21T12:10:01.119Z,99709.81
2023-04-21T12:12:29.316Z,99707.94
2023-04-21T12:14:57.344Z,99711.25
2023-04-21T12:17:25.405Z,99709.56
2023-04-21T12:19:53.481Z,99714.97
2023-04-21T12:22:23.559Z,99697.72
2023-04-21T12:24:51.530Z,99709.34
2023-04-21T12:27:21.263Z,99696.66
2023-04-21T12:29:49.324Z,99695.56
2023-04-21T12:32:17.705Z,99695.56
2023-04-21T12:34:45.900Z,99695.56
2023-04-21T12:37:14.010Z,99698.88
2023-04-21T12:39:42.218Z,99694.53
2023-04-21T12:42:10.448Z,99681.59
2023-04-21T12:44:40.230Z,99680.53
2023-04-21T12:47:08.717Z,99684.88
2023-04-21T12:49:36.777Z,99684.88
2023-04-21T12:52:06.250Z,99678.66
2023-04-21T12:54:34.562Z,99677.59
2023-04-21T12:57:02.781Z,99674.06
2023-04-21T12:59:31.050Z,99676.53
2023-04-21T13:02:00.825Z,99667.38
2023-04-21T13:04:29.394Z,99666.53
2023-04-21T13:06:57.716Z,99677.34
2023-04-21T13:09:25.735Z,99671.34
2023-04-21T13:11:53.738Z,99681.34
2023-04-21T13:14:21.675Z,99673.25
2023-04-21T13:16:49.928Z,99681.13
2023-04-21T13:19:19.474Z,99653.03
2023-04-21T13:21:48.299Z,99659.84
2023-04-21T13:24:16.412Z,99661.72
2023-04-21T13:26:44.387Z,99654.22
2023-04-21T13:29:12.415Z,99656.44
2023-04-21T13:31:40.694Z,99651.84
2023-04-21T13:34:09.242Z,99655.34
2023-04-21T13:36:38.670Z,99654.31
2023-04-21T13:39:09.899Z,99650.06
2023-04-21T13:41:38.087Z,99654.16
2023-04-21T13:44:06.394Z,99653.69
2023-04-21T13:46:34.563Z,99650.75
2023-04-21T13:49:02.884Z,99646.97
2023-04-21T13:51:32.245Z,99658.38
2023-04-21T13:54:01.808Z,99641.06
2023-04-21T13:56:29.889Z,99643.22
2023-04-21T13:58:59.444Z,99646.97
2023-04-21T14:01:27.493Z,99647.78
2023-04-21T14:03:56.924Z,99639.94
2023-04-21T14:06:25.180Z,99643.69
2023-04-21T14:08:53.359Z,99638.28
2023-04-21T14:11:22.833Z,99642.88
2023-04-21T14:14:04.860Z,99637.47
2023-04-21T14:16:36.052Z,99635.00
2023-04-21T14:19:04.109Z,99633.94
2023-04-21T14:21:32.434Z,99635.00
2023-04-21T14:24:00.440Z,99638.28
2023-04-21T14:26:29.920Z,99626.63
2023-04-21T14:28:59.765Z,99627.44
2023-04-21T14:31:27.882Z,99635.81
2023-04-21T14:33:56.077Z,99626.91
2023-04-21T14:36:24.189Z,99630.41
2023-04-21T14:38:52.270Z,99619.00
2023-04-21T14:41:20.391Z,99632.88
2023-04-21T14:43:53.839Z,99629.13
2023-04-21T14:46:22.012Z,99621.00
2023-04-21T14:48:50.009Z,99621.09
2023-04-21T14:51:19.012Z,99623.06
2023-04-21T14:53:47.329Z,99623.56
2023-04-21T14:56:15.950Z,99620.53
2023-04-21T14:58:43.951Z,99616.19
2023-04-21T15:01:13.362Z,99623.66
2023-04-21T15:03:41.690Z,99609.34
2023-04-21T15:06:09.817Z,99612.84
2023-04-21T15:08:37.923Z,99612.72
2023-04-21T15:11:06.366Z,99605.13
2023-04-21T15:13:34.347Z,99603.59
2023-04-21T15:16:02.493Z,99594.97
2023-04-21T15:18:31.978Z,99604.72
2023-04-21T15:20:59.939Z,99603.69
2023-04-21T15:23:29.217Z,99602.03
2023-04-21T15:25:58.140Z,99600.97
2023-04-21T15:28:26.163Z,99601.78
2023-04-21T15:30:54.590Z,99599.91
2023-04-21T15:33:22.657Z,99604.50
2023-04-21T15:35:52.805Z,99600.72
2023-04-21T15:38:21.205Z,99605.56
2023-04-21T15:41:00.146Z,99599.31
2023-04-21T15:43:28.911Z,99600.41
2023-04-21T15:45:56.976Z,99601.94
2023-04-21T15:48:25.076Z,99601.38
2023-04-21T15:50:54.469Z,99600.00
2023-04-21T15:53:22.530Z,99600.47
2023-04-21T15:55:52.100Z,99596.38
2023-04-21T15:58:22.278Z,99593.31
2023-04-21T16:00:50.376Z,99594.63
2023-04-21T16:03:18.574Z,99593.22
2023-04-21T16:05:47.761Z,99594.53
2023-04-21T16:08:17.478Z,99604.78
2023-04-21T16:10:45.520Z,99587.38
2023-04-21T16:13:13.597Z,99585.97
2023-04-21T16:15:42.269Z,99592.69
2023-04-21T16:18:10.445Z,99591.28
2023-04-21T16:20:38.843Z,99582.59
2023-04-21T16:23:07.022Z,99593.91
2023-04-21T16:25:36.578Z,99590.59
2023-04-21T16:28:06.392Z,99581.09
2023-04-21T16:30:35.230Z,99596.75
2023-04-21T16:33:03.451Z,99589.97
2023-04-21T16:35:31.604Z,99584.56
2023-04-21T16:37:59.782Z,99593.72
2023-04-21T16:40:28.008Z,99589.59
2023-04-21T16:43:03.288Z,99587.97
2023-04-21T16:45:32.764Z,99592.56
2023-04-21T16:48:00.946Z,99595.50
2023-04-21T16:50:29.025Z,99588.47
2023-04-21T16:52:57.002Z,99595.97
2023-04-21T16:55:24.985Z,99598.09
2023-04-21T16:57:53.070Z,99595.66
2023-04-21T17:00:22.645Z,99601.28
2023-04-21T17:02:50.788Z,99599.88
2023-04-21T17:05:18.954Z,99602.00
2023-04-21T17:07:48.205Z,99604.97
2023-04-21T17:10:16.364Z,99603.31
2023-04-21T17:12:44.380Z,99606.25
2023-04-21T17:15:13.317Z,99604.59
2023-04-21T17:17:43.735Z,99600.50
2023-04-21T17:20:12.997Z,99611.31
2023-04-21T17:22:41.439Z,99612.63
2023-04-21T17:25:10.224Z,99600.97
2023-04-21T17:27:38.759Z,99614.75
2023-04-21T17:30:07.896Z,99601.47
2023-04-21T17:32:36.055Z,99605.25
2023-04-21T17:35:11.934Z,99597.34
2023-04-21T17:37:42.580Z,99607.34
2023-04-21T17:40:11.438Z,99611.69
2023-04-21T17:42:40.448Z,99616.53
2023-04-21T17:45:09.450Z,99619.22
2023-04-21T17:47:37.543Z,99620.28
2023-04-21T17:50:06.427Z,99619.69
2023-04-21T17:52:35.909Z,99618.63
2023-04-21T17:55:04.165Z,99615.34
2023-04-21T17:57:32.164Z,99619.13
2023-04-21T18:00:00.662Z,99622.06
2023-04-21T18:02:28.832Z,99614.75
2023-04-21T18:04:57.182Z,99620.63
2023-04-21T18:07:25.337Z,99624.38
2023-04-21T18:09:54.739Z,99620.88
2023-04-21T18:12:22.742Z,99621.09
2023-04-21T18:14:51.383Z,99614.06
2023-04-21T18:17:19.497Z,99624.03
2023-04-21T18:19:47.461Z,99620.50
2023-04-21T18:22:15.398Z,99619.91
2023-04-21T18:24:43.277Z,99624.50
2023-04-21T18:27:13.935Z,99624.75
2023-04-21T18:29:41.906Z,99624.75
2023-04-21T18:32:09.937Z,99628.50
2023-04-21T18:34:38.673Z,99636.59
2023-04-21T18:37:06.997Z,99632.28
2023-04-21T18:39:34.945Z,99634.16
2023-04-21T18:42:03.026Z,99633.34
2023-04-21T18:44:32.637Z,99637.66
2023-04-21T18:47:00.735Z,99641.44
2023-04-21T18:49:28.783Z,99635.19
2023-04-21T18:51:56.854Z,99637.09
2023-04-21T18:54:24.929Z,99638.97
2023-04-21T18:56:53.026Z,99640.84
2023-04-21T18:59:22.256Z,99638.97
2023-04-21T19:01:51.783Z,99639.19
2023-04-21T19:04:20.070Z,99640.25
2023-04-21T19:06:48.389Z,99643.78
2023-04-21T19:09:18.074Z,99649.44
2023-04-21T19:11:46.049Z,99643.19
2023-04-21T19:14:14.127Z,99643.44
2023-04-21T19:16:42.272Z,99646.13
2023-04-21T19:19:12.302Z,99648.03
2023-04-21T19:21:40.497Z,99651.75
2023-04-21T19:24:08.454Z,99652.56
2023-04-21T19:26:36.468Z,99655.53
2023-04-21T19:29:04.968Z,99657.41
2023-04-21T19:31:33.038Z,99655.75
2023-04-21T19:34:01.084Z,99655.75
2023-04-21T19:36:31.323Z,99657.88
2023-04-21T19:38:59.401Z,99660.34
2023-04-21T19:41:27.399Z,99657.88
2023-04-21T19:43:55.516Z,99668.44
2023-04-21T19:46:23.611Z,99661.63
2023-04-21T19:48:51.729Z,99667.84
2023-04-21T19:51:21.782Z,99665.97
2023-04-21T19:54:03.089Z,99664.34
2023-04-21T19:56:36.807Z,99665.16
2023-04-21T19:59:05.791Z,99663.53
2023-04-21T20:01:33.851Z,99660.81
2023-04-21T20:04:02.156Z,99667.03
2023-04-21T20:06:30.650Z,99663.75
2023-04-21T20:09:00.166Z,99662.94
2023-04-21T20:11:29.316Z,99663.75
2023-04-21T20:13:57.460Z,99659.19
2023-04-21T20:16:26.498Z,99657.53
2023-04-21T20:18:55.640Z,99663.19
2023-04-21T20:21:23.807Z,99657.78
2023-04-21T20:23:51.779Z,99659.63
2023-04-21T20:26:21.534Z,99657.19
2023-04-21T20:28:49.647Z,99662.59
2023-04-21T20:31:19.093Z,99671.72
2023-04-21T20:33:47.429Z,99663.63
2023-04-21T20:36:15.510Z,99674.44
2023-04-21T20:38:46.497Z,99669.28
2023-04-21T20:41:14.672Z,99668.47
2023-04-21T20:43:44.161Z,99677.38
2023-04-21T20:46:16.677Z,99667.63
2023-04-21T20:48:44.809Z,99666.78
2023-04-21T20:51:13.517Z,99663.06
2023-04-21T20:53:41.616Z,99667.38
2023-04-21T20:56:09.607Z,99662.00
2023-04-21T20:58:37.577Z,99670.09
2023-04-21T21:01:07.084Z,99663.88
2023-04-21T21:03:35.472Z,99670.09
2023-04-21T21:06:03.835Z,99665.75
2023-04-21T21:08:31.813Z,99664.91
2023-04-21T21:10:59.738Z,99665.97
2023-04-21T21:13:27.715Z,99667.03
2023-04-21T21:15:55.848Z,99666.19
2023-04-21T21:18:25.318Z,99672.66
2023-04-21T21:20:53.331Z,99671.84
2023-04-21T21:23:21.423Z,99668.56
2023-04-21T21:25:49.442Z,99669.84
2023-04-21T21:28:17.777Z,99676.31
2023-04-21T21:30:45.753Z,99673.84
2023-04-21T21:33:13.863Z,99681.13
2023-04-21T21:35:43.312Z,99675.72
2023-04-21T21:38:11.402Z,99670.53
2023-04-21T21:40:39.420Z,99678.88
2023-04-21T21:43:07.563Z,99677.00
2023-04-21T21:45:35.601Z,99679.94
2023-04-21T21:48:03.825Z,99678.28
2023-04-21T21:50:31.897Z,99681.00
2023-04-21T21:53:01.393Z,99679.38
2023-04-21T21:55:29.503Z,99678.28
2023-04-21T21:57:57.483Z,99678.28
2023-04-21T22:00:27.090Z,99676.41
2023-04-21T22:02:56.564Z,99676.66
2023-04-21T22:05:24.586Z,99685.56
2023-04-21T22:08:04.397Z,99672.28
2023-04-21T22:10:44.765Z,99677.47
2023-04-21T22:13:18.934Z,99682.06
2023-04-21T22:15:49.736Z,99677.69
2023-04-21T22:18:23.538Z,99681.22
2023-04-21T22:20:57.232Z,99679.59
2023-04-21T22:23:25.708Z,99677.09
2023-04-21T22:26:03.922Z,99678.16
2023-04-21T22:28:36.635Z,99682.50
2023-04-21T22:31:10.423Z,99686.25
2023-04-21T22:33:42.517Z,99684.63
2023-04-21T22:36:14.897Z,99688.38
2023-04-21T22:38:49.446Z,99692.94
2023-04-21T22:41:21.935Z,99692.13
2023-04-21T22:43:53.543Z,99690.50
2023-04-21T22:46:26.330Z,99693.41
2023-04-21T22:48:58.333Z,99688.84
2023-04-21T22:51:35.794Z,99693.41
2023-04-21T22:54:07.069Z,99688.50
2023-04-21T22:56:41.572Z,99685.53
2023-04-21T22:59:16.613Z,99692.00
2023-04-21T23:01:47.762Z,99698.00
2023-04-21T23:04:19.995Z,99690.72
2023-04-21T23:06:52.056Z,99696.72
2023-04-21T23:09:23.197Z,99696.72
2023-04-21T23:11:57.416Z,99698.34
2023-04-21T23:14:36.122Z,99699.16
2023-04-21T23:17:08.551Z,99701.66
2023-04-21T23:19:39.983Z,99691.66
2023-04-21T23:22:10.188Z,99696.00
2023-04-21T23:24:44.292Z,99693.56
2023-04-21T23:27:27.187Z,99690.03
2023-04-21T23:29:58.977Z,99688.38
2023-04-21T23:32:29.297Z,99695.66
2023-04-21T23:35:02.774Z,99693.19
2023-04-21T23:37:34.376Z,99693.19
2023-04-21T23:40:02.671Z,99688.25
2023-04-21T23:42:38.405Z,99684.72
2023-04-21T23:45:08.303Z,99683.91
2023-04-21T23:47:37.634Z,99687.69
2023-04-21T23:50:11.782Z,99694.09
2023-04-21T23:52:46.774Z,99692.47
2023-04-21T23:55:21.015Z,99694.34
2023-04-21T23:57:51.826Z,99692.69
